Time;durP1;ratioP1;P1;durP2;ratioP2;P2;SDS_P1;SDS_P2;PMS_P1;PMS_P2;Temp;Humidity;BMP_temperature;BMP_pressure;BME280_temperature;BME280_humidity;BME280_pressure;Samples;Min_cycle;Max_cycle;Signal;HPM_P1;HPM_P2
2022/09/08 00:00:21;;;;;;;21.52;3.20;;;15.20;99.90;;;;;;5014303;28;20637;-57
2022/09/08 00:02:47;;;;;;;22.52;3.30;;;15.20;99.90;;;;;;5013791;28;20186;-57
2022/09/08 00:05:17;;;;;;;25.52;3.28;;;15.20;99.90;;;;;;5013832;28;20171;-58
2022/09/08 00:07:44;;;;;;;21.80;2.95;;;15.30;99.90;;;;;;5013701;28;20171;-58
2022/09/08 00:10:11;;;;;;;17.52;3.20;;;15.20;99.90;;;;;;5013807;28;20179;-58
2022/09/08 00:12:41;;;;;;;25.20;2.63;;;15.20;99.90;;;;;;5013834;28;20166;-59
2022/09/08 00:15:08;;;;;;;30.27;3.72;;;15.20;99.90;;;;;;5013653;28;20202;-56
2022/09/08 00:17:34;;;;;;;23.75;3.08;;;15.20;99.90;;;;;;5013450;28;20210;-56
2022/09/08 00:20:00;;;;;;;26.58;3.22;;;15.20;99.90;;;;;;5013450;28;20629;-56
2022/09/08 00:22:26;;;;;;;33.08;3.67;;;15.20;99.90;;;;;;5013489;28;20518;-56
2022/09/08 00:24:52;;;;;;;21.88;2.75;;;15.30;99.90;;;;;;5013607;28;20708;-56
2022/09/08 00:27:17;;;;;;;19.40;3.30;;;15.20;99.90;;;;;;5013337;28;20254;-56
2022/09/08 00:29:43;;;;;;;16.23;2.88;;;15.30;99.90;;;;;;5013430;28;20174;-56
2022/09/08 00:32:09;;;;;;;25.13;3.83;;;15.30;99.90;;;;;;5013380;28;20533;-56
2022/09/08 00:34:35;;;;;;;36.72;3.35;;;15.40;99.90;;;;;;5013060;28;20657;-56
2022/09/08 00:37:00;;;;;;;26.40;3.10;;;15.40;99.90;;;;;;5013053;28;20224;-57
2022/09/08 00:39:26;;;;;;;18.52;3.53;;;15.40;99.90;;;;;;5012879;28;20548;-56
2022/09/08 00:41:52;;;;;;;25.27;3.28;;;15.40;99.90;;;;;;5013139;28;20196;-57
2022/09/08 00:44:40;;;;;;;21.08;2.90;;;15.50;99.90;;;;;;5012990;28;20592;-56
2022/09/08 00:47:22;;;;;;;28.15;3.75;;;15.60;99.90;;;;;;5012944;28;20226;-56
2022/09/08 00:49:56;;;;;;;26.05;4.68;;;15.70;99.90;;;;;;5013166;28;20170;-56
2022/09/08 00:52:24;;;;;;;21.90;3.20;;;15.70;99.90;;;;;;5012779;28;20174;-56
2022/09/08 00:54:50;;;;;;;22.10;3.45;;;15.70;99.90;;;;;;5012851;28;20210;-57
2022/09/08 00:57:16;;;;;;;26.77;3.20;;;15.70;99.90;;;;;;5012849;28;20234;-56
2022/09/08 00:59:45;;;;;;;15.82;3.28;;;15.70;99.90;;;;;;5012630;28;20237;-56
2022/09/08 01:02:24;;;;;;;24.98;3.53;;;15.70;99.90;;;;;;5012646;28;20177;-57
2022/09/08 01:04:57;;;;;;;30.85;3.97;;;15.80;99.90;;;;;;5012375;28;20547;-57
2022/09/08 01:13:27;;;;;;;23.50;3.08;;;15.70;99.90;;;;;;5012446;28;20659;-57
2022/09/08 01:15:55;;;;;;;31.27;3.38;;;15.70;99.90;;;;;;5012463;28;21801;-55
2022/09/08 01:18:21;;;;;;;22.58;3.47;;;15.70;99.90;;;;;;5014554;28;20174;-56
2022/09/08 01:20:53;;;;;;;22.83;3.03;;;15.70;99.90;;;;;;5012247;28;20193;-57
2022/09/08 01:24:00;;;;;;;23.08;3.13;;;15.80;99.90;;;;;;5012260;28;20175;-56
2022/09/08 01:27:03;;;;;;;22.92;3.65;;;15.70;99.90;;;;;;4989659;28;20193;-57
2022/09/08 01:29:29;;;;;;;21.85;3.22;;;15.80;99.90;;;;;;5012243;28;20269;-56
2022/09/08 01:31:57;;;;;;;21.17;3.38;;;15.80;99.90;;;;;;5012123;28;20250;-56
2022/09/08 01:34:23;;;;;;;26.52;3.70;;;15.90;99.90;;;;;;5011973;28;20650;-56
2022/09/08 01:36:49;;;;;;;28.20;3.40;;;15.90;99.90;;;;;;5011923;28;20234;-56
2022/09/08 01:39:15;;;;;;;22.05;3.33;;;15.90;99.90;;;;;;5011823;28;20178;-56
2022/09/08 01:41:40;;;;;;;22.92;2.83;;;15.90;99.90;;;;;;5011914;28;20229;-56
2022/09/08 01:44:06;;;;;;;25.55;3.42;;;15.80;99.90;;;;;;5011972;28;20603;-56
2022/09/08 01:46:32;;;;;;;22.40;3.17;;;15.70;99.90;;;;;;5011777;28;20170;-56
2022/09/08 01:48:58;;;;;;;19.75;3.22;;;15.70;99.90;;;;;;5011710;28;20669;-57
2022/09/08 01:51:25;;;;;;;28.15;3.50;;;15.70;99.90;;;;;;5010557;28;20645;-57
2022/09/08 01:53:50;;;;;;;27.50;3.58;;;15.70;99.90;;;;;;5011607;28;20582;-56
2022/09/08 01:56:16;;;;;;;22.90;3.88;;;15.60;99.90;;;;;;5011673;28;20388;-57
2022/09/08 01:58:41;;;;;;;28.20;3.85;;;15.60;99.90;;;;;;5011632;28;20187;-57
2022/09/08 02:01:07;;;;;;;19.45;3.05;;;15.50;99.90;;;;;;5011788;28;20186;-57
2022/09/08 02:03:33;;;;;;;23.33;3.53;;;15.50;99.90;;;;;;5011670;28;20193;-56
2022/09/08 02:06:01;;;;;;;25.20;3.10;;;15.50;99.90;;;;;;5010283;28;20171;-56
2022/09/08 02:08:27;;;;;;;21.35;2.80;;;15.50;99.90;;;;;;5011309;28;20179;-56
2022/09/08 02:10:58;;;;;;;28.55;4.00;;;15.40;99.90;;;;;;5011420;28;20174;-57
2022/09/08 02:13:24;;;;;;;22.75;3.33;;;15.40;99.90;;;;;;5011511;28;20187;-58
2022/09/08 02:15:50;;;;;;;19.40;3.53;;;15.50;99.90;;;;;;5011805;28;20237;-55
2022/09/08 02:18:16;;;;;;;21.23;3.95;;;15.50;99.90;;;;;;5011763;28;20583;-56
2022/09/08 02:20:42;;;;;;;22.98;2.70;;;15.50;99.90;;;;;;5011465;28;20206;-56
2022/09/08 02:23:07;;;;;;;27.65;3.58;;;15.50;99.90;;;;;;5011316;28;20213;-57
2022/09/08 02:25:33;;;;;;;24.48;3.75;;;15.50;99.90;;;;;;5011409;28;20171;-57
2022/09/08 02:27:59;;;;;;;29.52;4.10;;;15.50;99.90;;;;;;5011258;28;20611;-56
2022/09/08 02:30:25;;;;;;;33.65;3.72;;;15.50;99.90;;;;;;5011215;28;20322;-57
2022/09/08 02:32:51;;;;;;;25.92;3.75;;;15.50;99.90;;;;;;5011291;28;20257;-57
2022/09/08 02:35:17;;;;;;;22.38;3.60;;;15.50;99.90;;;;;;5011219;28;20178;-57
2022/09/08 02:37:43;;;;;;;27.17;3.72;;;15.50;99.90;;;;;;5011162;28;20218;-56
2022/09/08 02:40:09;;;;;;;19.48;3.03;;;15.50;99.90;;;;;;5011112;28;20226;-57
2022/09/08 02:42:36;;;;;;;25.35;3.53;;;15.40;99.90;;;;;;5011192;28;20523;-57
2022/09/08 02:45:02;;;;;;;17.85;3.38;;;15.40;99.90;;;;;;5011086;28;20166;-57
2022/09/08 02:47:28;;;;;;;21.48;3.20;;;15.50;99.90;;;;;;5011193;28;20178;-56
2022/09/08 02:49:53;;;;;;;23.50;3.60;;;15.40;99.90;;;;;;5011208;28;20550;-57
2022/09/08 02:52:19;;;;;;;27.33;3.40;;;15.40;99.90;;;;;;5011000;28;20665;-57
2022/09/08 02:54:45;;;;;;;26.48;2.90;;;15.40;99.90;;;;;;5011125;28;20166;-58
2022/09/08 02:57:11;;;;;;;24.08;3.70;;;15.40;99.90;;;;;;5010979;28;20705;-58
2022/09/08 02:59:37;;;;;;;22.15;3.10;;;15.40;99.90;;;;;;5011035;28;20186;-57
2022/09/08 03:02:02;;;;;;;23.83;3.38;;;15.40;99.90;;;;;;5010950;28;20532;-57
2022/09/08 03:04:28;;;;;;;23.77;3.53;;;15.40;99.90;;;;;;5010961;28;20193;-57
2022/09/08 03:06:54;;;;;;;25.52;2.97;;;15.40;99.90;;;;;;5010936;28;20600;-57
2022/09/08 03:09:19;;;;;;;18.48;3.22;;;15.40;99.90;;;;;;5011083;28;20253;-58
2022/09/08 03:11:45;;;;;;;18.17;3.30;;;15.40;99.90;;;;;;5010821;28;20668;-58
2022/09/08 03:14:11;;;;;;;21.08;3.00;;;15.40;99.90;;;;;;5011086;28;20273;-57
2022/09/08 03:16:36;;;;;;;16.13;3.22;;;15.40;99.90;;;;;;5010443;28;20700;-58
2022/09/08 03:19:02;;;;;;;12.73;2.63;;;15.40;99.90;;;;;;5014191;28;20668;-57
2022/09/08 03:21:28;;;;;;;14.63;2.88;;;15.40;99.90;;;;;;5012364;28;20656;-59
2022/09/08 03:23:54;;;;;;;22.38;3.15;;;15.40;99.90;;;;;;5014421;28;20170;-56
2022/09/08 03:26:22;;;;;;;20.67;3.65;;;15.40;99.90;;;;;;5014585;28;20548;-56
2022/09/08 03:28:48;;;;;;;12.20;2.83;;;15.40;99.90;;;;;;5014560;28;20194;-59
2022/09/08 03:31:17;;;;;;;20.42;3.25;;;15.40;99.90;;;;;;5014430;28;20668;-56
2022/09/08 03:33:43;;;;;;;20.15;2.92;;;15.40;99.90;;;;;;5014223;28;20175;-56
2022/09/08 03:36:11;;;;;;;21.20;3.33;;;15.30;99.90;;;;;;5014130;28;20186;-56
2022/09/08 03:38:37;;;;;;;16.02;3.47;;;15.30;99.90;;;;;;5014299;28;20193;-56
2022/09/08 03:41:08;;;;;;;19.25;2.92;;;15.30;99.90;;;;;;5014238;28;20724;-56
2022/09/08 03:43:34;;;;;;;21.77;3.38;;;15.30;99.90;;;;;;5014068;28;20444;-56
2022/09/08 03:46:00;;;;;;;27.17;3.83;;;15.30;99.90;;;;;;5014551;28;20625;-56
2022/09/08 03:48:26;;;;;;;25.92;3.33;;;15.30;99.90;;;;;;5014060;28;20175;-56
2022/09/08 03:50:52;;;;;;;23.90;3.60;;;15.30;99.90;;;;;;5013929;28;20493;-56
2022/09/08 03:53:17;;;;;;;17.95;2.67;;;15.30;99.90;;;;;;5014238;28;20171;-58
2022/09/08 03:55:43;;;;;;;24.20;3.45;;;15.30;99.90;;;;;;5013989;28;20515;-58
2022/09/08 03:58:10;;;;;;;12.75;2.63;;;15.30;99.90;;;;;;5013817;28;20666;-58
2022/09/08 04:00:38;;;;;;;21.55;3.70;;;15.30;99.90;;;;;;5013975;28;20170;-58
2022/09/08 04:03:04;;;;;;;22.00;3.75;;;15.30;99.90;;;;;;5013749;28;20189;-58
2022/09/08 04:05:31;;;;;;;27.70;3.95;;;15.30;99.90;;;;;;5013790;28;20167;-57
2022/09/08 04:07:56;;;;;;;19.30;3.83;;;15.30;99.90;;;;;;5013815;28;20510;-58
2022/09/08 04:10:22;;;;;;;23.88;3.22;;;15.30;99.90;;;;;;5013797;28;20269;-58
2022/09/08 04:12:48;;;;;;;16.33;2.60;;;15.30;99.90;;;;;;5013890;28;20249;-58
2022/09/08 04:15:14;;;;;;;23.98;3.35;;;15.20;99.90;;;;;;5013563;28;20251;-58
2022/09/08 04:17:40;;;;;;;22.58;3.42;;;15.30;99.90;;;;;;5013443;28;20249;-57
2022/09/08 04:20:07;;;;;;;16.40;3.13;;;15.30;99.90;;;;;;5013826;28;20175;-58
2022/09/08 04:22:33;;;;;;;18.88;3.00;;;15.30;99.90;;;;;;5013756;28;20249;-58
2022/09/08 04:24:59;;;;;;;20.42;3.58;;;15.30;99.90;;;;;;5013636;28;20258;-58
2022/09/08 04:27:25;;;;;;;26.92;3.97;;;15.40;99.90;;;;;;5013515;28;20167;-56
2022/09/08 04:29:50;;;;;;;24.10;4.03;;;15.40;99.90;;;;;;5013220;28;20179;-55
2022/09/08 04:32:17;;;;;;;30.33;4.57;;;15.30;99.90;;;;;;5012646;28;20638;-55
2022/09/08 04:34:42;;;;;;;28.88;4.18;;;15.30;99.90;;;;;;5013443;28;20174;-58
2022/09/08 04:37:08;;;;;;;29.40;3.63;;;15.20;99.90;;;;;;5013259;28;20210;-56
2022/09/08 04:39:34;;;;;;;28.02;4.20;;;15.30;99.90;;;;;;5013155;28;20166;-59
2022/09/08 04:42:00;;;;;;;26.80;3.80;;;15.20;99.90;;;;;;5012961;28;20183;-55
2022/09/08 04:44:26;;;;;;;21.50;3.20;;;15.20;99.90;;;;;;5013030;28;20185;-56
2022/09/08 04:46:51;;;;;;;22.00;3.55;;;15.20;99.90;;;;;;5012834;28;20228;-57
2022/09/08 04:49:17;;;;;;;25.67;3.58;;;15.20;99.90;;;;;;5012879;28;20186;-57
2022/09/08 04:51:43;;;;;;;24.05;3.72;;;15.20;99.90;;;;;;5012901;28;20651;-57
2022/09/08 04:54:10;;;;;;;30.42;4.43;;;15.20;99.90;;;;;;5011519;28;20657;-56
2022/09/08 04:56:36;;;;;;;30.80;4.50;;;15.20;99.90;;;;;;5012707;28;20219;-56
2022/09/08 04:59:03;;;;;;;32.53;4.05;;;15.20;99.90;;;;;;5014778;28;20197;-56
2022/09/08 05:01:31;;;;;;;25.73;3.85;;;15.20;99.90;;;;;;5013087;28;20175;-56
2022/09/08 05:04:00;;;;;;;29.08;4.25;;;15.20;99.90;;;;;;5012976;28;20545;-57
2022/09/08 05:06:26;;;;;;;19.13;3.28;;;15.20;99.90;;;;;;5012724;28;20633;-57
2022/09/08 05:08:55;;;;;;;28.52;4.63;;;15.20;99.90;;;;;;5012660;28;20206;-56
2022/09/08 05:11:22;;;;;;;24.17;4.13;;;15.20;99.90;;;;;;5012697;28;20205;-57
2022/09/08 05:13:50;;;;;;;24.02;4.03;;;15.20;99.90;;;;;;5012474;28;20187;-56
2022/09/08 05:16:22;;;;;;;23.48;3.60;;;15.20;99.90;;;;;;5012293;28;20688;-56
2022/09/08 05:18:53;;;;;;;26.85;3.92;;;15.20;99.90;;;;;;5012531;28;20183;-57
2022/09/08 05:21:20;;;;;;;22.15;3.80;;;15.20;99.90;;;;;;5012501;28;20171;-57
2022/09/08 05:23:49;;;;;;;21.63;3.58;;;15.20;99.90;;;;;;5012238;28;20182;-56
2022/09/08 05:26:16;;;;;;;20.13;3.85;;;15.30;99.90;;;;;;5012322;28;20265;-57
2022/09/08 05:28:42;;;;;;;27.20;4.35;;;15.30;99.90;;;;;;5012387;28;20178;-57
2022/09/08 05:31:16;;;;;;;21.52;3.53;;;15.30;99.90;;;;;;5012352;28;20167;-57
2022/09/08 05:33:42;;;;;;;20.55;3.50;;;15.30;99.90;;;;;;5010860;28;20171;-57
2022/09/08 05:36:14;;;;;;;25.38;3.78;;;15.30;99.90;;;;;;5012087;28;20173;-57
2022/09/08 05:38:40;;;;;;;21.25;3.65;;;15.30;99.90;;;;;;5012110;28;20175;-57
2022/09/08 05:41:06;;;;;;;20.60;3.63;;;15.20;99.90;;;;;;5011673;28;20771;-57
2022/09/08 05:43:32;;;;;;;22.15;3.90;;;15.20;99.90;;;;;;5011139;28;20514;-55
2022/09/08 05:45:58;;;;;;;19.65;3.20;;;15.10;99.90;;;;;;5010552;28;20215;-56
2022/09/08 05:48:23;;;;;;;24.90;3.78;;;15.10;99.90;;;;;;5011806;28;20170;-57
2022/09/08 05:50:49;;;;;;;28.13;4.03;;;15.10;99.90;;;;;;5011707;28;20175;-56
2022/09/08 05:53:15;;;;;;;24.95;4.32;;;15.10;99.90;;;;;;5011634;28;20174;-57
2022/09/08 05:55:41;;;;;;;33.35;4.15;;;15.00;99.90;;;;;;5011662;28;20171;-57
2022/09/08 05:58:11;;;;;;;25.77;4.18;;;16.10;99.90;;;;;;5011865;28;20210;-57
2022/09/08 06:00:37;;;;;;;30.45;4.25;;;15.20;99.90;;;;;;5011526;28;20630;-57
2022/09/08 06:03:03;;;;;;;33.83;4.97;;;15.20;99.90;;;;;;5026777;28;20601;-58
2022/09/08 06:05:29;;;;;;;32.30;4.85;;;15.20;99.90;;;;;;5011951;28;20201;-58
2022/09/08 06:07:55;;;;;;;35.67;5.50;;;15.30;99.90;;;;;;5011521;28;20162;-57
2022/09/08 06:10:20;;;;;;;26.15;4.80;;;15.40;99.90;;;;;;5011422;28;20181;-57
2022/09/08 06:12:46;;;;;;;23.58;4.28;;;15.40;99.90;;;;;;5011458;28;20645;-58
2022/09/08 06:15:12;;;;;;;37.00;5.57;;;15.40;99.90;;;;;;5011396;28;20175;-57
2022/09/08 06:17:38;;;;;;;41.53;4.88;;;15.50;99.90;;;;;;5011483;28;20708;-58
2022/09/08 06:20:05;;;;;;;29.98;5.07;;;15.60;99.90;;;;;;5011769;28;20166;-57
2022/09/08 06:22:32;;;;;;;27.50;4.10;;;15.70;99.90;;;;;;5011259;28;20190;-57
2022/09/08 06:25:02;;;;;;;25.10;4.30;;;15.70;99.90;;;;;;5011132;28;20174;-57
2022/09/08 06:27:53;;;;;;;25.52;4.32;;;15.80;99.90;;;;;;5011477;28;20179;-57
2022/09/08 06:30:19;;;;;;;34.20;5.25;;;15.80;99.90;;;;;;5011172;28;20167;-56
2022/09/08 06:32:54;;;;;;;20.02;3.95;;;15.90;99.90;;;;;;5011304;28;20277;-58
2022/09/08 06:35:43;;;;;;;21.92;4.90;;;15.80;99.90;;;;;;5011038;28;20178;-57
2022/09/08 06:38:23;;;;;;;26.48;4.53;;;15.80;99.90;;;;;;5011212;28;20218;-58
2022/09/08 06:40:53;;;;;;;31.05;4.15;;;15.80;99.90;;;;;;5010990;28;20313;-58
2022/09/08 06:43:22;;;;;;;34.30;4.88;;;15.80;99.90;;;;;;5011094;28;20170;-57
2022/09/08 06:45:52;;;;;;;25.17;4.97;;;15.80;99.90;;;;;;5011013;28;20193;-57
2022/09/08 06:48:31;;;;;;;34.03;4.97;;;15.80;99.90;;;;;;5011010;28;20170;-57
2022/09/08 06:51:31;;;;;;;24.25;3.97;;;15.80;99.90;;;;;;5011022;28;20178;-57
2022/09/08 06:54:09;;;;;;;28.73;4.78;;;15.80;99.90;;;;;;5010965;28;20213;-56
2022/09/08 06:56:56;;;;;;;22.92;4.25;;;15.80;99.90;;;;;;5014353;28;20325;-56
2022/09/08 06:59:21;;;;;;;26.67;4.72;;;15.80;99.90;;;;;;5014384;28;20258;-57
2022/09/08 07:02:24;;;;;;;31.50;4.35;;;15.80;99.90;;;;;;5018147;28;20697;-57
2022/09/08 07:04:57;;;;;;;24.17;5.05;;;15.80;99.90;;;;;;5014692;28;20652;-57
2022/09/08 07:07:53;;;;;;;23.98;4.40;;;15.90;99.90;;;;;;5015062;28;20583;-57
2022/09/08 07:10:29;;;;;;;25.92;4.63;;;15.90;99.90;;;;;;5014725;28;20217;-57
2022/09/08 07:13:18;;;;;;;28.30;5.28;;;15.90;99.90;;;;;;5014811;28;20170;-58
2022/09/08 07:16:05;;;;;;;22.35;5.20;;;16.00;99.90;;;;;;5014594;28;20257;-57
2022/09/08 07:18:54;;;;;;;29.92;5.03;;;16.10;99.90;;;;;;5014575;28;20701;-57
2022/09/08 07:21:33;;;;;;;17.23;4.28;;;16.20;99.90;;;;;;5014655;28;20205;-58
2022/09/08 07:24:01;;;;;;;24.42;4.30;;;16.40;99.90;;;;;;5014565;28;20672;-57
2022/09/08 07:26:38;;;;;;;23.15;3.72;;;16.60;99.90;;;;;;5014489;28;20632;-57
2022/09/08 07:29:15;;;;;;;21.48;3.72;;;16.90;99.90;;;;;;5014412;28;20313;-57
2022/09/08 07:31:47;;;;;;;22.27;3.90;;;17.20;99.90;;;;;;5014538;28;20178;-58
2022/09/08 07:34:28;;;;;;;23.27;4.07;;;17.30;99.90;;;;;;5014346;28;20633;-56
2022/09/08 07:37:17;;;;;;;24.27;4.35;;;17.60;99.90;;;;;;5014165;28;20233;-58
2022/09/08 07:39:48;;;;;;;17.98;3.28;;;17.70;99.90;;;;;;5013839;28;20281;-56
2022/09/08 07:42:15;;;;;;;19.17;3.55;;;17.60;99.90;;;;;;5014318;28;20234;-57
2022/09/08 07:44:41;;;;;;;14.80;3.58;;;17.60;99.90;;;;;;5014030;28;20175;-57
2022/09/08 07:47:25;;;;;;;16.67;2.83;;;17.60;99.90;;;;;;5014003;28;20194;-57
2022/09/08 07:50:19;;;;;;;19.25;3.55;;;17.70;99.90;;;;;;5014042;28;20186;-56
2022/09/08 07:52:59;;;;;;;28.13;3.53;;;17.70;99.90;;;;;;5013943;28;20266;-56
2022/09/08 07:55:34;;;;;;;21.52;3.17;;;17.60;99.90;;;;;;5014101;28;20281;-57
2022/09/08 07:58:30;;;;;;;22.50;3.60;;;17.70;99.90;;;;;;5014050;28;20305;-56
2022/09/08 08:01:15;;;;;;;20.48;3.25;;;17.70;99.90;;;;;;5013757;28;20177;-56
2022/09/08 08:03:49;;;;;;;21.15;3.45;;;17.80;99.90;;;;;;5013826;28;20166;-56
2022/09/08 08:06:19;;;;;;;15.73;3.00;;;17.90;99.90;;;;;;5013462;28;20212;-56
2022/09/08 08:09:03;;;;;;;18.00;2.88;;;17.90;99.90;;;;;;5013519;28;20167;-56
2022/09/08 08:11:53;;;;;;;23.35;3.75;;;17.90;99.90;;;;;;5013908;28;20186;-57
2022/09/08 08:14:44;;;;;;;17.23;3.20;;;17.70;99.90;;;;;;5013771;28;20178;-57
2022/09/08 08:17:25;;;;;;;17.70;3.17;;;17.50;99.90;;;;;;5013434;28;20574;-56
2022/09/08 08:20:08;;;;;;;22.77;3.92;;;17.40;99.90;;;;;;5013768;28;20564;-57
2022/09/08 08:22:52;;;;;;;14.98;3.00;;;17.70;99.90;;;;;;5013935;28;20576;-56
2022/09/08 08:25:28;;;;;;;17.20;3.03;;;17.70;99.90;;;;;;5013479;28;20281;-57
2022/09/08 08:28:14;;;;;;;19.20;2.60;;;18.20;99.90;;;;;;5013623;28;20232;-57
2022/09/08 08:31:10;;;;;;;15.95;2.92;;;18.60;99.90;;;;;;5011963;28;20179;-57
2022/09/08 08:33:50;;;;;;;13.32;2.35;;;18.60;99.90;;;;;;5013466;28;20170;-57
2022/09/08 08:36:20;;;;;;;16.42;2.70;;;18.50;99.90;;;;;;5013240;28;20664;-56
2022/09/08 08:38:49;;;;;;;15.30;2.30;;;18.40;99.90;;;;;;5013254;28;20317;-57
2022/09/08 08:41:30;;;;;;;18.20;2.85;;;18.80;99.90;;;;;;5012998;28;20242;-56
2022/09/08 08:44:04;;;;;;;15.95;2.53;;;19.40;99.90;;;;;;5013122;28;20653;-57
2022/09/08 08:46:53;;;;;;;14.73;2.25;;;19.40;99.90;;;;;;5013096;28;20185;-56
2022/09/08 08:49:24;;;;;;;13.38;2.50;;;19.30;99.90;;;;;;5012958;28;20672;-56
2022/09/08 08:52:20;;;;;;;14.77;2.20;;;19.10;99.90;;;;;;5012946;28;20698;-56
2022/09/08 08:55:01;;;;;;;15.60;3.05;;;18.90;99.90;;;;;;5012853;28;20694;-55
2022/09/08 08:57:33;;;;;;;16.27;2.75;;;18.60;99.90;;;;;;5012799;28;20298;-57
2022/09/08 09:00:34;;;;;;;17.98;2.67;;;18.60;99.90;;;;;;5012846;28;20675;-56
2022/09/08 09:03:15;;;;;;;12.13;2.30;;;18.60;99.90;;;;;;4959904;28;20665;-56
2022/09/08 09:05:52;;;;;;;19.83;2.70;;;18.80;99.90;;;;;;5012993;28;20170;-57
2022/09/08 09:09:12;;;;;;;10.05;2.20;;;19.00;99.90;;;;;;5012827;28;20162;-56
2022/09/08 09:11:57;;;;;;;9.90;1.85;;;19.30;99.90;;;;;;4955181;28;20180;-56
2022/09/08 09:14:50;;;;;;;18.35;2.75;;;19.20;99.90;;;;;;5009552;28;20186;-57
2022/09/08 09:17:36;;;;;;;10.40;2.38;;;19.50;99.90;;;;;;5012612;28;20214;-56
2022/09/08 09:20:07;;;;;;;12.85;2.17;;;19.60;99.90;;;;;;5011541;28;20170;-57
2022/09/08 09:23:10;;;;;;;13.25;2.30;;;19.60;99.90;;;;;;5012435;28;20209;-57
2022/09/08 09:25:39;;;;;;;14.45;2.00;;;19.50;99.90;;;;;;5012501;28;20182;-57
2022/09/08 09:28:08;;;;;;;12.15;2.22;;;19.50;99.90;;;;;;5012423;28;20171;-56
2022/09/08 09:30:48;;;;;;;13.95;2.10;;;19.60;99.90;;;;;;5012363;28;20162;-57
2022/09/08 09:33:57;;;;;;;18.10;2.35;;;19.60;99.90;;;;;;5012238;28;20530;-56
2022/09/08 09:36:38;;;;;;;13.68;2.45;;;19.50;99.90;;;;;;4970730;28;20331;-57
2022/09/08 09:39:21;;;;;;;15.98;2.50;;;19.40;99.90;;;;;;5007545;28;20328;-57
2022/09/08 09:42:08;;;;;;;12.90;2.42;;;19.10;99.90;;;;;;5012473;28;20232;-57
2022/09/08 09:45:12;;;;;;;18.83;2.40;;;19.10;99.90;;;;;;5012172;28;20190;-57
2022/09/08 09:48:23;;;;;;;11.45;2.42;;;18.70;99.90;;;;;;5012114;28;20198;-58
2022/09/08 09:51:16;;;;;;;11.98;2.20;;;18.50;99.90;;;;;;5001513;28;20649;-57
2022/09/08 09:53:56;;;;;;;12.02;2.40;;;18.60;99.90;;;;;;5011950;28;20177;-57
2022/09/08 09:56:43;;;;;;;20.05;3.13;;;19.30;99.90;;;;;;5011796;28;20217;-57
2022/09/08 09:59:39;;;;;;;12.25;2.28;;;20.50;99.90;;;;;;5011791;28;20282;-57
2022/09/08 10:02:23;;;;;;;16.63;2.45;;;20.50;99.90;;;;;;5011822;28;20221;-58
2022/09/08 10:05:12;;;;;;;12.13;2.15;;;20.40;99.90;;;;;;5011798;28;20186;-58
2022/09/08 10:08:04;;;;;;;13.68;2.40;;;21.60;99.90;;;;;;5011618;28;20189;-57
2022/09/08 10:11:07;;;;;;;14.00;2.58;;;23.50;99.90;;;;;;5011658;28;20232;-58
2022/09/08 10:14:03;;;;;;;12.13;2.50;;;23.00;99.90;;;;;;5011579;28;20253;-58
2022/09/08 10:16:28;;;;;;;14.02;2.33;;;23.20;99.90;;;;;;5011360;28;20195;-58
2022/09/08 10:19:12;;;;;;;12.10;2.55;;;24.50;99.90;;;;;;5011415;28;20182;-58
2022/09/08 10:22:13;;;;;;;13.27;2.60;;;24.40;99.90;;;;;;5011439;28;20171;-57
2022/09/08 10:25:17;;;;;;;13.65;2.45;;;23.70;99.90;;;;;;5011363;28;20266;-57
2022/09/08 10:27:52;;;;;;;10.20;2.53;;;23.20;99.90;;;;;;4990303;28;20194;-58
2022/09/08 10:30:39;;;;;;;14.25;2.53;;;22.90;99.90;;;;;;5010695;28;20162;-57
2022/09/08 10:33:27;;;;;;;11.23;2.50;;;23.00;99.90;;;;;;5011346;28;20177;-57
2022/09/08 10:36:01;;;;;;;12.18;2.45;;;23.70;99.90;;;;;;5011154;28;20178;-57
2022/09/08 10:38:55;;;;;;;10.32;1.65;;;24.60;99.90;;;;;;5011311;28;20196;-58
2022/09/08 10:41:46;;;;;;;10.70;2.25;;;24.00;99.90;;;;;;5011203;28;20289;-57
2022/09/08 10:44:39;;;;;;;8.85;2.22;;;22.70;99.90;;;;;;5011077;28;20253;-57
2022/09/08 10:47:46;;;;;;;9.27;1.85;;;22.60;99.90;;;;;;5011083;28;20206;-57
2022/09/08 10:50:28;;;;;;;9.63;1.85;;;22.70;99.90;;;;;;4969796;28;20221;-57
2022/09/08 10:53:18;;;;;;;12.60;2.10;;;23.00;99.90;;;;;;4969723;28;20709;-57
2022/09/08 10:56:13;;;;;;;8.23;2.10;;;22.60;99.90;;;;;;5000202;28;20190;-57
2022/09/08 10:58:39;;;;;;;9.00;1.85;;;21.80;99.90;;;;;;5010995;28;20655;-57
2022/09/08 11:01:42;;;;;;;11.15;2.13;;;21.20;99.90;;;;;;5010261;28;20250;-57
2022/09/08 11:04:48;;;;;;;10.23;1.63;;;20.70;99.90;;;;;;5010935;28;20174;-55
2022/09/08 11:07:19;;;;;;;7.20;1.58;;;20.10;99.90;;;;;;4999404;28;20252;-56
2022/09/08 11:09:57;;;;;;;9.77;1.77;;;19.50;99.90;;;;;;5010951;28;20178;-56
2022/09/08 11:12:37;;;;;;;8.80;1.60;;;19.30;99.90;;;;;;5010859;28;20178;-57
2022/09/08 11:15:12;;;;;;;9.07;1.65;;;19.20;99.90;;;;;;5010944;28;20174;-56
2022/09/08 11:17:47;;;;;;;9.82;2.35;;;19.40;99.90;;;;;;5010642;28;20255;-56
2022/09/08 11:20:55;;;;;;;10.30;2.58;;;19.30;99.90;;;;;;5010830;28;20255;-56
2022/09/08 11:23:33;;;;;;;9.38;1.88;;;19.10;99.90;;;;;;5010815;28;20224;-56
2022/09/08 11:26:17;;;;;;;8.90;1.70;;;19.00;99.90;;;;;;5010834;28;20166;-57
2022/09/08 11:29:09;;;;;;;9.93;1.77;;;18.70;99.90;;;;;;5010823;28;20182;-56
2022/09/08 11:31:53;;;;;;;17.92;1.77;;;18.40;99.90;;;;;;5010974;28;20194;-56
2022/09/08 11:35:00;;;;;;;14.77;2.22;;;18.30;99.90;;;;;;5010810;28;20657;-55
2022/09/08 11:37:53;;;;;;;8.38;1.65;;;18.00;99.90;;;;;;4999416;28;20727;-56
2022/09/08 11:40:31;;;;;;;10.60;2.08;;;17.60;99.90;;;;;;5010496;28;20752;-55
2022/09/08 11:43:16;;;;;;;9.18;1.95;;;17.30;99.90;;;;;;5012797;28;20174;-56
2022/09/08 11:46:00;;;;;;;10.35;1.80;;;17.20;99.90;;;;;;5012966;28;20210;-55
2022/09/08 11:49:04;;;;;;;12.88;2.15;;;17.50;99.90;;;;;;5014177;28;20254;-56
2022/09/08 11:51:42;;;;;;;13.20;2.35;;;16.80;99.90;;;;;;5014211;28;20258;-57
2022/09/08 11:54:25;;;;;;;10.15;1.85;;;16.80;99.90;;;;;;5014069;28;20541;-57
2022/09/08 11:57:06;;;;;;;12.32;2.25;;;16.80;99.90;;;;;;5013926;28;20202;-57
2022/09/08 11:59:38;;;;;;;12.15;2.42;;;16.80;99.90;;;;;;5014065;28;20247;-56
2022/09/08 12:02:22;;;;;;;11.50;2.10;;;16.80;99.90;;;;;;5013828;28;20186;-56
2022/09/08 12:05:02;;;;;;;16.50;2.80;;;16.80;99.90;;;;;;5013888;28;20227;-57
2022/09/08 12:08:02;;;;;;;16.45;2.47;;;16.90;99.90;;;;;;5013616;28;20171;-57
2022/09/08 12:10:47;;;;;;;10.98;2.40;;;17.10;99.90;;;;;;5013727;28;20594;-56
2022/09/08 12:13:21;;;;;;;12.68;2.05;;;17.20;99.90;;;;;;5013826;28;20175;-56
2022/09/08 12:16:02;;;;;;;11.55;2.17;;;17.20;99.90;;;;;;5013747;28;20166;-57
2022/09/08 12:18:34;;;;;;;10.52;2.33;;;17.20;99.90;;;;;;5012464;28;20202;-57
2022/09/08 12:21:03;;;;;;;9.38;2.15;;;17.40;99.90;;;;;;5013504;28;20216;-57
2022/09/08 12:23:34;;;;;;;12.48;2.47;;;17.50;99.90;;;;;;5013530;28;20182;-57
2022/09/08 12:26:21;;;;;;;12.15;1.88;;;17.50;99.90;;;;;;5013604;28;20166;-57
2022/09/08 12:28:58;;;;;;;15.45;2.53;;;17.60;99.90;;;;;;5013510;28;20181;-58
2022/09/08 12:31:41;;;;;;;13.63;2.20;;;17.70;99.90;;;;;;5013302;28;20599;-57
2022/09/08 12:34:37;;;;;;;9.20;2.08;;;17.90;99.90;;;;;;5013277;28;20163;-58
2022/09/08 12:37:32;;;;;;;7.70;2.08;;;18.10;99.90;;;;;;5008459;28;20309;-57
2022/09/08 12:40:12;;;;;;;6.30;1.80;;;18.10;99.90;;;;;;4976806;28;20306;-57
2022/09/08 12:42:56;;;;;;;7.57;1.48;;;17.90;99.90;;;;;;5013394;28;20170;-57
2022/09/08 12:45:52;;;;;;;12.20;2.25;;;19.00;99.90;;;;;;5013301;28;20174;-58
2022/09/08 12:48:20;;;;;;;11.52;1.63;;;17.80;99.90;;;;;;5013019;28;20179;-58
2022/09/08 12:50:50;;;;;;;9.70;1.90;;;17.80;99.90;;;;;;5013103;28;20177;-56
2022/09/08 12:53:40;;;;;;;8.77;2.00;;;17.80;99.90;;;;;;5012785;28;20191;-57
2022/09/08 12:56:22;;;;;;;9.55;2.03;;;17.60;99.90;;;;;;5012925;28;20178;-55
2022/09/08 12:58:54;;;;;;;8.02;1.65;;;17.60;99.90;;;;;;5013223;28;20194;-55
2022/09/08 13:01:30;;;;;;;12.25;1.92;;;17.70;99.90;;;;;;5013053;28;20185;-55
2022/09/08 13:03:59;;;;;;;16.25;2.17;;;17.90;99.90;;;;;;5016101;28;20205;-55
2022/09/08 13:06:49;;;;;;;12.77;2.17;;;18.00;99.90;;;;;;5012770;28;20174;-55
2022/09/08 13:09:21;;;;;;;11.73;1.70;;;18.10;99.90;;;;;;5012926;28;20545;-54
2022/09/08 13:12:20;;;;;;;13.73;2.20;;;18.40;99.90;;;;;;5012674;28;20240;-56
2022/09/08 13:14:51;;;;;;;9.82;1.85;;;19.00;99.90;;;;;;5012570;28;20182;-56
2022/09/08 13:17:48;;;;;;;5.13;1.00;;;19.30;99.90;;;;;;5012399;28;20284;-56
2022/09/08 13:20:40;;;;;;;4.75;1.00;;;20.00;99.90;;;;;;5012483;28;20611;-57
2022/09/08 13:23:15;;;;;;;4.78;1.20;;;21.00;99.90;;;;;;5007109;28;20281;-56
2022/09/08 13:26:09;;;;;;;5.72;1.25;;;21.80;99.90;;;;;;5012345;28;20212;-56